sensor_id;sensor_type;location;lat;lon;timestamp;pressure;altitude;pressure_sealevel;temperature;humidity
42727;BME280;28372;56.832;60.658;2023-06-26T00:02:31;96837.09;;;15.99;68.24
42727;BME280;28372;56.832;60.658;2023-06-26T00:05:00;96835.97;;;15.97;68.57
42727;BME280;28372;56.832;60.658;2023-06-26T00:07:33;96837.16;;;15.96;68.74
42727;BME280;28372;56.832;60.658;2023-06-26T00:10:04;96835.97;;;15.97;68.49
42727;BME280;28372;56.832;60.658;2023-06-26T00:12:33;96844.84;;;16.01;68.76
42727;BME280;28372;56.832;60.658;2023-06-26T00:15:01;96845.28;;;15.99;68.58
42727;BME280;28372;56.832;60.658;2023-06-26T00:17:33;96841.72;;;15.86;68.61
42727;BME280;28372;56.832;60.658;2023-06-26T00:20:05;96838.66;;;15.84;69.18
42727;BME280;28372;56.832;60.658;2023-06-26T00:22:39;96846.06;;;15.83;69.50
42727;BME280;28372;56.832;60.658;2023-06-26T00:25:09;96842.66;;;15.79;69.56
42727;BME280;28372;56.832;60.658;2023-06-26T00:27:37;96840.44;;;15.74;70.51
42727;BME280;28372;56.832;60.658;2023-06-26T00:30:05;96841.47;;;15.80;70.87
42727;BME280;28372;56.832;60.658;2023-06-26T00:32:33;96830.22;;;15.78;70.53
42727;BME280;28372;56.832;60.658;2023-06-26T00:35:03;96834.81;;;15.81;70.77
42727;BME280;28372;56.832;60.658;2023-06-26T00:37:31;96845.03;;;15.77;70.70
42727;BME280;28372;56.832;60.658;2023-06-26T00:39:59;96836.06;;;15.76;70.91
42727;BME280;28372;56.832;60.658;2023-06-26T00:42:26;96835.25;;;15.80;70.81
42727;BME280;28372;56.832;60.658;2023-06-26T00:44:54;96827.47;;;15.78;71.10
42727;BME280;28372;56.832;60.658;2023-06-26T00:47:22;96836.38;;;15.82;70.92
42727;BME280;28372;56.832;60.658;2023-06-26T00:49:51;96829.44;;;15.77;71.30
42727;BME280;28372;56.832;60.658;2023-06-26T00:52:19;96828.84;;;15.86;69.54
42727;BME280;28372;56.832;60.658;2023-06-26T00:54:47;96826.97;;;15.83;69.92
42727;BME280;28372;56.832;60.658;2023-06-26T00:57:17;96831.75;;;15.79;70.42
42727;BME280;28372;56.832;60.658;2023-06-26T00:59:45;96831.41;;;15.77;69.77
42727;BME280;28372;56.832;60.658;2023-06-26T01:02:13;96823.13;;;15.81;70.11
42727;BME280;28372;56.832;60.658;2023-06-26T01:04:50;96828.69;;;15.77;70.46
42727;BME280;28372;56.832;60.658;2023-06-26T01:07:19;96822.19;;;15.87;68.30
42727;BME280;28372;56.832;60.658;2023-06-26T01:09:48;96818.53;;;15.77;68.55
42727;BME280;28372;56.832;60.658;2023-06-26T01:12:17;96814.25;;;15.76;69.81
42727;BME280;28372;56.832;60.658;2023-06-26T01:14:48;96822.88;;;15.75;70.17
42727;BME280;28372;56.832;60.658;2023-06-26T01:17:17;96821.69;;;15.76;70.22
42727;BME280;28372;56.832;60.658;2023-06-26T01:19:45;96808.66;;;15.84;70.59
42727;BME280;28372;56.832;60.658;2023-06-26T01:22:29;96819.31;;;16.07;73.01
42727;BME280;28372;56.832;60.658;2023-06-26T01:27:37;96823.38;;;15.86;69.46
42727;BME280;28372;56.832;60.658;2023-06-26T01:30:06;96826.97;;;15.83;70.02
42727;BME280;28372;56.832;60.658;2023-06-26T01:32:35;96825.69;;;15.88;69.59
42727;BME280;28372;56.832;60.658;2023-06-26T01:35:06;96820.50;;;15.93;69.80
42727;BME280;28372;56.832;60.658;2023-06-26T01:37:35;96829.84;;;15.92;68.46
42727;BME280;28372;56.832;60.658;2023-06-26T01:40:03;96818.84;;;15.96;67.72
42727;BME280;28372;56.832;60.658;2023-06-26T01:42:34;96823.53;;;15.96;67.38
42727;BME280;28372;56.832;60.658;2023-06-26T01:45:16;96822.09;;;16.20;69.05
42727;BME280;28372;56.832;60.658;2023-06-26T01:47:49;96819.31;;;16.07;67.77
42727;BME280;28372;56.832;60.658;2023-06-26T01:50:24;96823.50;;;16.12;67.81
42727;BME280;28372;56.832;60.658;2023-06-26T01:53:02;96813.25;;;16.16;68.37
42727;BME280;28372;56.832;60.658;2023-06-26T01:55:41;96828.06;;;16.15;67.24
42727;BME280;28372;56.832;60.658;2023-06-26T01:58:15;96823.13;;;16.10;66.13
42727;BME280;28372;56.832;60.658;2023-06-26T02:00:45;96827.84;;;16.09;65.92
42727;BME280;28372;56.832;60.658;2023-06-26T02:03:13;96825.34;;;16.15;65.27
42727;BME280;28372;56.832;60.658;2023-06-26T02:05:41;96823.06;;;16.14;65.08
42727;BME280;28372;56.832;60.658;2023-06-26T02:08:10;96817.59;;;16.14;65.26
42727;BME280;28372;56.832;60.658;2023-06-26T02:10:38;96825.88;;;16.10;64.88
42727;BME280;28372;56.832;60.658;2023-06-26T02:13:06;96815.19;;;16.16;64.20
42727;BME280;28372;56.832;60.658;2023-06-26T02:15:34;96822.69;;;16.12;63.80
42727;BME280;28372;56.832;60.658;2023-06-26T02:18:02;96829.81;;;16.09;64.15
42727;BME280;28372;56.832;60.658;2023-06-26T02:20:30;96828.50;;;16.14;64.04
42727;BME280;28372;56.832;60.658;2023-06-26T02:22:59;96835.16;;;16.13;63.95
42727;BME280;28372;56.832;60.658;2023-06-26T02:25:27;96834.84;;;16.10;63.87
42727;BME280;28372;56.832;60.658;2023-06-26T02:27:55;96829.81;;;16.09;63.54
42727;BME280;28372;56.832;60.658;2023-06-26T02:30:22;96835.50;;;16.15;63.75
42727;BME280;28372;56.832;60.658;2023-06-26T02:32:50;96825.16;;;16.22;62.30
42727;BME280;28372;56.832;60.658;2023-06-26T02:35:18;96835.59;;;16.11;62.94
42727;BME280;28372;56.832;60.658;2023-06-26T02:37:45;96838.66;;;16.13;63.26
42727;BME280;28372;56.832;60.658;2023-06-26T02:40:13;96841.28;;;16.17;63.04
42727;BME280;28372;56.832;60.658;2023-06-26T02:42:41;96833.63;;;16.12;62.76
42727;BME280;28372;56.832;60.658;2023-06-26T02:45:09;96834.72;;;16.14;62.54
42727;BME280;28372;56.832;60.658;2023-06-26T02:47:37;96838.22;;;16.15;62.79
42727;BME280;28372;56.832;60.658;2023-06-26T02:50:10;96843.38;;;16.25;61.67
42727;BME280;28372;56.832;60.658;2023-06-26T02:52:57;96824.50;;;16.31;61.73
42727;BME280;28372;56.832;60.658;2023-06-26T02:55:26;96841.50;;;16.22;61.79
42727;BME280;28372;56.832;60.658;2023-06-26T02:57:55;96835.19;;;16.25;61.51
42727;BME280;28372;56.832;60.658;2023-06-26T03:00:23;96831.03;;;16.21;61.26
42727;BME280;28372;56.832;60.658;2023-06-26T03:02:53;96835.72;;;16.20;60.75
42727;BME280;28372;56.832;60.658;2023-06-26T03:05:22;96838.78;;;16.22;60.98
42727;BME280;28372;56.832;60.658;2023-06-26T03:07:52;96843.91;;;16.20;60.88
42727;BME280;28372;56.832;60.658;2023-06-26T03:10:19;96848.81;;;16.25;61.05
42727;BME280;28372;56.832;60.658;2023-06-26T03:12:48;96848.28;;;16.18;60.76
42727;BME280;28372;56.832;60.658;2023-06-26T03:15:17;96840.56;;;16.29;60.12
42727;BME280;28372;56.832;60.658;2023-06-26T03:17:46;96844.16;;;16.26;60.17
42727;BME280;28372;56.832;60.658;2023-06-26T03:20:21;96846.44;;;16.27;60.23
42727;BME280;28372;56.832;60.658;2023-06-26T03:22:54;96839.69;;;16.32;58.97
42727;BME280;28372;56.832;60.658;2023-06-26T03:25:23;96845.06;;;16.36;59.37
42727;BME280;28372;56.832;60.658;2023-06-26T03:27:59;96833.16;;;16.42;59.15
42727;BME280;28372;56.832;60.658;2023-06-26T03:30:28;96837.75;;;16.46;58.87
42727;BME280;28372;56.832;60.658;2023-06-26T03:32:57;96845.75;;;16.53;58.78
42727;BME280;28372;56.832;60.658;2023-06-26T03:35:25;96837.53;;;16.40;58.29
42727;BME280;28372;56.832;60.658;2023-06-26T03:37:53;96835.91;;;16.55;58.18
42727;BME280;28372;56.832;60.658;2023-06-26T03:40:20;96846.63;;;16.63;57.89
42727;BME280;28372;56.832;60.658;2023-06-26T03:42:50;96840.59;;;16.68;57.65
42727;BME280;28372;56.832;60.658;2023-06-26T03:45:18;96847.38;;;16.76;57.34
42727;BME280;28372;56.832;60.658;2023-06-26T03:47:48;96847.38;;;16.76;56.64
42727;BME280;28372;56.832;60.658;2023-06-26T03:50:16;96850.13;;;16.76;56.79
42727;BME280;28372;56.832;60.658;2023-06-26T03:52:44;96846.94;;;16.77;56.32
42727;BME280;28372;56.832;60.658;2023-06-26T03:55:13;96848.25;;;16.73;55.96
42727;BME280;28372;56.832;60.658;2023-06-26T03:57:44;96841.03;;;16.66;56.37
42727;BME280;28372;56.832;60.658;2023-06-26T04:00:13;96846.72;;;16.72;56.20
42727;BME280;28372;56.832;60.658;2023-06-26T04:02:41;96838.00;;;16.77;56.26
42727;BME280;28372;56.832;60.658;2023-06-26T04:05:11;96837.69;;;16.75;56.11
42727;BME280;28372;56.832;60.658;2023-06-26T04:07:39;96844.44;;;16.70;56.63
42727;BME280;28372;56.832;60.658;2023-06-26T04:10:07;96840.94;;;16.70;56.83
42727;BME280;28372;56.832;60.658;2023-06-26T04:12:35;96835.38;;;16.73;56.86
42727;BME280;28372;56.832;60.658;2023-06-26T04:15:03;96837.25;;;16.76;56.71
42727;BME280;28372;56.832;60.658;2023-06-26T04:17:30;96836.03;;;16.77;56.32
42727;BME280;28372;56.832;60.658;2023-06-26T04:19:58;96838.66;;;16.81;55.97
42727;BME280;28372;56.832;60.658;2023-06-26T04:22:26;96842.94;;;16.82;56.56
42727;BME280;28372;56.832;60.658;2023-06-26T04:24:54;96844.22;;;16.65;56.61
42727;BME280;28372;56.832;60.658;2023-06-26T04:27:22;96840.72;;;16.64;56.58
42727;BME280;28372;56.832;60.658;2023-06-26T04:29:49;96834.50;;;16.64;55.96
42727;BME280;28372;56.832;60.658;2023-06-26T04:32:17;96837.56;;;16.66;56.53
42727;BME280;28372;56.832;60.658;2023-06-26T04:34:45;96835.59;;;16.66;56.34
42727;BME280;28372;56.832;60.658;2023-06-26T04:37:12;96835.34;;;16.60;56.05
42727;BME280;28372;56.832;60.658;2023-06-26T04:39:43;96830.78;;;16.57;56.62
42727;BME280;28372;56.832;60.658;2023-06-26T04:42:11;96838.53;;;16.59;56.58
42727;BME280;28372;56.832;60.658;2023-06-26T04:44:39;96842.34;;;16.61;56.31
42727;BME280;28372;56.832;60.658;2023-06-26T04:47:09;96841.91;;;16.63;56.78
42727;BME280;28372;56.832;60.658;2023-06-26T04:49:37;96846.28;;;16.73;56.65
42727;BME280;28372;56.832;60.658;2023-06-26T04:52:05;96843.56;;;16.73;56.84
42727;BME280;28372;56.832;60.658;2023-06-26T04:54:33;96842.81;;;16.73;56.18
42727;BME280;28372;56.832;60.658;2023-06-26T04:57:01;96840.50;;;16.71;56.66
42727;BME280;28372;56.832;60.658;2023-06-26T04:59:28;96845.75;;;16.78;56.80
42727;BME280;28372;56.832;60.658;2023-06-26T05:01:56;96845.53;;;16.86;56.53
42727;BME280;28372;56.832;60.658;2023-06-26T05:04:24;96847.00;;;16.90;56.07
42727;BME280;28372;56.832;60.658;2023-06-26T05:06:52;96851.47;;;16.97;55.69
42727;BME280;28372;56.832;60.658;2023-06-26T05:09:20;96851.81;;;17.12;55.18
42727;BME280;28372;56.832;60.658;2023-06-26T05:11:47;96856.94;;;17.10;56.34
42727;BME280;28372;56.832;60.658;2023-06-26T05:14:15;96852.91;;;17.15;55.28
42727;BME280;28372;56.832;60.658;2023-06-26T05:16:43;96850.16;;;17.15;55.69
42727;BME280;28372;56.832;60.658;2023-06-26T05:19:10;96859.97;;;17.25;57.04
42727;BME280;28372;56.832;60.658;2023-06-26T05:21:38;96865.78;;;17.27;56.20
42727;BME280;28372;56.832;60.658;2023-06-26T05:24:07;96871.03;;;17.34;57.08
42727;BME280;28372;56.832;60.658;2023-06-26T05:26:36;96871.03;;;17.34;56.02
42727;BME280;28372;56.832;60.658;2023-06-26T05:29:04;96871.13;;;17.18;56.96
42727;BME280;28372;56.832;60.658;2023-06-26T05:31:33;96869.94;;;17.19;56.96
42727;BME280;28372;56.832;60.658;2023-06-26T05:34:03;96875.19;;;17.26;56.29
42727;BME280;28372;56.832;60.658;2023-06-26T05:36:33;96881.38;;;17.39;56.58
42727;BME280;28372;56.832;60.658;2023-06-26T05:39:01;96880.97;;;17.41;56.29
42727;BME280;28372;56.832;60.658;2023-06-26T05:41:30;96877.00;;;17.55;56.21
42727;BME280;28372;56.832;60.658;2023-06-26T05:43:57;96876.88;;;17.58;55.78
42727;BME280;28372;56.832;60.658;2023-06-26T05:46:25;96865.75;;;17.53;55.79
42727;BME280;28372;56.832;60.658;2023-06-26T05:48:53;96870.34;;;17.43;55.81
42727;BME280;28372;56.832;60.658;2023-06-26T05:51:20;96869.50;;;17.33;55.45
42727;BME280;28372;56.832;60.658;2023-06-26T05:53:49;96871.91;;;17.31;56.18
42727;BME280;28372;56.832;60.658;2023-06-26T05:56:17;96866.75;;;17.33;56.65
42727;BME280;28372;56.832;60.658;2023-06-26T05:58:46;96869.19;;;17.31;56.26
42727;BME280;28372;56.832;60.658;2023-06-26T06:01:14;96873.53;;;17.28;57.49
42727;BME280;28372;56.832;60.658;2023-06-26T06:03:41;96871.78;;;17.22;58.24
42727;BME280;28372;56.832;60.658;2023-06-26T06:06:10;96871.56;;;17.29;56.33
42727;BME280;28372;56.832;60.658;2023-06-26T06:08:38;96870.47;;;17.26;56.36
42727;BME280;28372;56.832;60.658;2023-06-26T06:11:05;96871.47;;;17.33;57.92
42727;BME280;28372;56.832;60.658;2023-06-26T06:13:33;96870.44;;;17.39;58.82
42727;BME280;28372;56.832;60.658;2023-06-26T06:16:01;96860.94;;;17.44;58.02
42727;BME280;28372;56.832;60.658;2023-06-26T06:18:29;96872.19;;;17.46;56.99
42727;BME280;28372;56.832;60.658;2023-06-26T06:20:56;96864.22;;;17.52;56.81
42727;BME280;28372;56.832;60.658;2023-06-26T06:23:24;96869.63;;;17.64;56.86
42727;BME280;28372;56.832;60.658;2023-06-26T06:25:52;96861.09;;;17.75;56.70
42727;BME280;28372;56.832;60.658;2023-06-26T06:28:20;96856.34;;;17.89;56.56
42727;BME280;28372;56.832;60.658;2023-06-26T06:30:47;96865.88;;;17.97;56.29
42727;BME280;28372;56.832;60.658;2023-06-26T06:33:15;96860.47;;;18.06;56.02
42727;BME280;28372;56.832;60.658;2023-06-26T06:35:43;96853.97;;;18.13;55.95
42727;BME280;28372;56.832;60.658;2023-06-26T06:47:34;96867.09;;;18.18;56.25
42727;BME280;28372;56.832;60.658;2023-06-26T06:50:02;96866.38;;;18.05;55.57
42727;BME280;28372;56.832;60.658;2023-06-26T06:52:36;96868.03;;;18.46;55.14
42727;BME280;28372;56.832;60.658;2023-06-26T06:55:04;96870.72;;;18.15;55.23
42727;BME280;28372;56.832;60.658;2023-06-26T06:57:33;96861.09;;;18.10;54.53
42727;BME280;28372;56.832;60.658;2023-06-26T07:00:05;96874.09;;;18.19;55.14
42727;BME280;28372;56.832;60.658;2023-06-26T07:02:37;96867.41;;;18.20;55.73
42727;BME280;28372;56.832;60.658;2023-06-26T07:05:05;96866.56;;;18.10;55.77
42727;BME280;28372;56.832;60.658;2023-06-26T07:07:33;96865.88;;;18.19;57.44
42727;BME280;28372;56.832;60.658;2023-06-26T07:10:07;96875.38;;;18.27;57.56
42727;BME280;28372;56.832;60.658;2023-06-26T07:12:36;96863.47;;;18.21;55.39
42727;BME280;28372;56.832;60.658;2023-06-26T07:15:05;96862.56;;;18.24;55.51
42727;BME280;28372;56.832;60.658;2023-06-26T07:17:34;96866.50;;;18.23;55.90
42727;BME280;28372;56.832;60.658;2023-06-26T07:20:02;96875.38;;;18.27;55.92
42727;BME280;28372;56.832;60.658;2023-06-26T07:22:43;96881.03;;;18.33;56.50
42727;BME280;28372;56.832;60.658;2023-06-26T07:25:12;96873.81;;;18.48;56.99
42727;BME280;28372;56.832;60.658;2023-06-26T07:27:41;96860.50;;;18.60;55.66
42727;BME280;28372;56.832;60.658;2023-06-26T07:30:09;96868.50;;;18.76;55.52
42727;BME280;28372;56.832;60.658;2023-06-26T07:32:38;96870.91;;;18.96;54.67
42727;BME280;28372;56.832;60.658;2023-06-26T07:35:06;96868.38;;;19.11;53.59
42727;BME280;28372;56.832;60.658;2023-06-26T07:37:33;96872.88;;;19.27;54.18
42727;BME280;28372;56.832;60.658;2023-06-26T07:40:01;96878.53;;;19.42;53.27
42727;BME280;28372;56.832;60.658;2023-06-26T07:42:30;96866.81;;;19.51;52.96
42727;BME280;28372;56.832;60.658;2023-06-26T07:44:58;96860.88;;;19.43;52.06
42727;BME280;28372;56.832;60.658;2023-06-26T07:47:26;96866.94;;;19.38;52.02
42727;BME280;28372;56.832;60.658;2023-06-26T07:49:53;96851.28;;;19.39;51.73
42727;BME280;28372;56.832;60.658;2023-06-26T07:52:21;96840.16;;;19.42;51.36
42727;BME280;28372;56.832;60.658;2023-06-26T07:54:49;96845.75;;;19.29;52.58
42727;BME280;28372;56.832;60.658;2023-06-26T07:57:16;96857.00;;;19.22;52.20
42727;BME280;28372;56.832;60.658;2023-06-26T07:59:44;96868.09;;;19.18;51.83
42727;BME280;28372;56.832;60.658;2023-06-26T08:02:12;96867.47;;;19.14;51.92
42727;BME280;28372;56.832;60.658;2023-06-26T08:04:40;96860.66;;;19.19;51.74
42727;BME280;28372;56.832;60.658;2023-06-26T08:07:07;96862.50;;;19.22;52.45
42727;BME280;28372;56.832;60.658;2023-06-26T08:09:35;96859.91;;;19.28;51.98
42727;BME280;28372;56.832;60.658;2023-06-26T08:12:03;96864.03;;;19.32;52.09
42727;BME280;28372;56.832;60.658;2023-06-26T08:14:33;96873.22;;;19.39;52.10
42727;BME280;28372;56.832;60.658;2023-06-26T08:17:00;96866.81;;;19.42;52.06
42727;BME280;28372;56.832;60.658;2023-06-26T08:19:28;96869.72;;;19.47;51.54
42727;BME280;28372;56.832;60.658;2023-06-26T08:21:55;96867.59;;;19.61;50.25
42727;BME280;28372;56.832;60.658;2023-06-26T08:24:23;96858.91;;;19.62;51.66
42727;BME280;28372;56.832;60.658;2023-06-26T08:26:51;96864.25;;;19.66;51.02
42727;BME280;28372;56.832;60.658;2023-06-26T08:29:19;96856.66;;;19.70;49.34
42727;BME280;28372;56.832;60.658;2023-06-26T08:31:46;96864.28;;;19.75;49.17
42727;BME280;28372;56.832;60.658;2023-06-26T08:34:14;96859.09;;;19.77;48.77
42727;BME280;28372;56.832;60.658;2023-06-26T08:36:42;96861.22;;;19.73;47.86
42727;BME280;28372;56.832;60.658;2023-06-26T08:39:09;96855.13;;;19.69;46.94
42727;BME280;28372;56.832;60.658;2023-06-26T08:41:37;96854.53;;;19.74;47.75
42727;BME280;28372;56.832;60.658;2023-06-26T08:44:05;96865.19;;;19.72;47.61
42727;BME280;28372;56.832;60.658;2023-06-26T08:46:33;96871.03;;;19.83;48.01
42727;BME280;28372;56.832;60.658;2023-06-26T08:50:10;96870.72;;;20.00;47.65
42727;BME280;28372;56.832;60.658;2023-06-26T08:52:22;96861.41;;;19.97;47.55
42727;BME280;28372;56.832;60.658;2023-06-26T08:54:55;96869.22;;;19.99;47.31
42727;BME280;28372;56.832;60.658;2023-06-26T08:57:26;96876.06;;;19.94;47.48
42727;BME280;28372;56.832;60.658;2023-06-26T08:59:54;96884.44;;;20.00;47.74
42727;BME280;28372;56.832;60.658;2023-06-26T09:02:22;96872.84;;;19.96;46.52
42727;BME280;28372;56.832;60.658;2023-06-26T09:04:50;96875.91;;;19.98;46.53
42727;BME280;28372;56.832;60.658;2023-06-26T09:07:18;96882.00;;;20.02;47.36
42727;BME280;28372;56.832;60.658;2023-06-26T09:09:46;96871.78;;;20.02;46.53
42727;BME280;28372;56.832;60.658;2023-06-26T09:12:13;96865.84;;;20.04;46.86
42727;BME280;28372;56.832;60.658;2023-06-26T09:14:41;96867.06;;;20.12;48.12
42727;BME280;28372;56.832;60.658;2023-06-26T09:17:09;96880.00;;;20.21;48.29
42727;BME280;28372;56.832;60.658;2023-06-26T09:19:37;96869.34;;;20.23;47.80
42727;BME280;28372;56.832;60.658;2023-06-26T09:22:11;96874.22;;;20.28;48.72
42727;BME280;28372;56.832;60.658;2023-06-26T09:24:41;96873.16;;;20.16;47.96
42727;BME280;28372;56.832;60.658;2023-06-26T09:27:11;96874.38;;;20.15;47.79
42727;BME280;28372;56.832;60.658;2023-06-26T09:29:38;96869.50;;;20.10;48.35
42727;BME280;28372;56.832;60.658;2023-06-26T09:32:08;96862.19;;;20.26;48.85
42727;BME280;28372;56.832;60.658;2023-06-26T09:34:36;96864.31;;;20.22;47.04
42727;BME280;28372;56.832;60.658;2023-06-26T09:37:05;96863.41;;;20.25;47.55
42727;BME280;28372;56.832;60.658;2023-06-26T09:39:32;96859.72;;;20.28;46.92
42727;BME280;28372;56.832;60.658;2023-06-26T09:42:00;96868.13;;;20.24;46.64
42727;BME280;28372;56.832;60.658;2023-06-26T09:44:33;96866.28;;;20.40;45.94
42727;BME280;28372;56.832;60.658;2023-06-26T09:47:04;96876.31;;;20.52;47.03
42727;BME280;28372;56.832;60.658;2023-06-26T09:49:32;96868.53;;;20.50;46.23
42727;BME280;28372;56.832;60.658;2023-06-26T09:52:01;96868.38;;;20.54;45.95
42727;BME280;28372;56.832;60.658;2023-06-26T09:54:29;96871.44;;;20.56;45.09
42727;BME280;28372;56.832;60.658;2023-06-26T09:57:09;96868.69;;;20.75;45.50
42727;BME280;28372;56.832;60.658;2023-06-26T09:59:37;96869.28;;;20.60;44.87
42727;BME280;28372;56.832;60.658;2023-06-26T10:02:05;96870.97;;;20.58;44.09
42727;BME280;28372;56.832;60.658;2023-06-26T10:04:34;96868.84;;;20.52;44.28
42727;BME280;28372;56.832;60.658;2023-06-26T10:07:08;96857.56;;;20.50;43.93
42727;BME280;28372;56.832;60.658;2023-06-26T10:09:41;96863.50;;;20.49;44.40
42727;BME280;28372;56.832;60.658;2023-06-26T10:12:42;96864.25;;;20.59;43.26
42727;BME280;28372;56.832;60.658;2023-06-26T10:15:13;96855.00;;;20.28;43.42
42727;BME280;28372;56.832;60.658;2023-06-26T10:17:45;96873.91;;;20.17;44.19
42727;BME280;28372;56.832;60.658;2023-06-26T10:20:14;96864.31;;;19.94;45.02
42727;BME280;28372;56.832;60.658;2023-06-26T10:22:45;96883.66;;;19.90;46.24
42727;BME280;28372;56.832;60.658;2023-06-26T10:25:20;96871.50;;;20.00;47.53
42727;BME280;28372;56.832;60.658;2023-06-26T10:27:52;96875.59;;;19.87;46.74
42727;BME280;28372;56.832;60.658;2023-06-26T10:30:24;96875.44;;;19.90;46.40
42727;BME280;28372;56.832;60.658;2023-06-26T10:32:54;96874.06;;;20.23;46.35
42727;BME280;28372;56.832;60.658;2023-06-26T10:35:23;96856.56;;;19.92;45.55
42727;BME280;28372;56.832;60.658;2023-06-26T10:37:51;96861.28;;;20.01;44.97
42727;BME280;28372;56.832;60.658;2023-06-26T10:40:25;96869.19;;;20.17;45.46
42727;BME280;28372;56.832;60.658;2023-06-26T10:43:06;96858.97;;;20.27;44.60
42727;BME280;28372;56.832;60.658;2023-06-26T10:45:38;96869.34;;;20.23;44.35
42727;BME280;28372;56.832;60.658;2023-06-26T10:48:10;96851.63;;;20.33;43.80
42727;BME280;28372;56.832;60.658;2023-06-26T10:50:37;96864.63;;;20.33;43.40
42727;BME280;28372;56.832;60.658;2023-06-26T10:53:11;96860.47;;;20.37;43.10
42727;BME280;28372;56.832;60.658;2023-06-26T10:55:43;96851.78;;;20.39;43.07
42727;BME280;28372;56.832;60.658;2023-06-26T10:58:47;96862.59;;;20.70;42.71
42727;BME280;28372;56.832;60.658;2023-06-26T11:01:18;96861.03;;;20.60;42.40
42727;BME280;28372;56.832;60.658;2023-06-26T11:04:08;96861.34;;;20.71;42.36
42727;BME280;28372;56.832;60.658;2023-06-26T11:06:38;96858.19;;;20.45;41.82
42727;BME280;28372;56.832;60.658;2023-06-26T11:09:14;96854.06;;;20.50;41.86
42727;BME280;28372;56.832;60.658;2023-06-26T11:14:23;96859.22;;;20.57;41.46
42727;BME280;28372;56.832;60.658;2023-06-26T11:16:51;96851.59;;;20.61;41.48
42727;BME280;28372;56.832;60.658;2023-06-26T11:19:20;96861.03;;;20.60;41.49
42727;BME280;28372;56.832;60.658;2023-06-26T11:21:48;96850.38;;;20.62;41.39
42727;BME280;28372;56.832;60.658;2023-06-26T11:24:16;96861.97;;;20.57;41.30
42727;BME280;28372;56.832;60.658;2023-06-26T11:26:45;96877.09;;;20.52;41.96
42727;BME280;28372;56.832;60.658;2023-06-26T11:29:12;96877.56;;;20.32;43.31
42727;BME280;28372;56.832;60.658;2023-06-26T11:31:41;96877.88;;;20.25;44.48
42727;BME280;28372;56.832;60.658;2023-06-26T11:34:12;96876.19;;;20.28;45.46
42727;BME280;28372;56.832;60.658;2023-06-26T11:36:42;96866.91;;;20.16;46.30
42727;BME280;28372;56.832;60.658;2023-06-26T11:39:13;96855.00;;;20.10;45.88
42727;BME280;28372;56.832;60.658;2023-06-26T11:41:40;96853.34;;;20.22;46.24
42727;BME280;28372;56.832;60.658;2023-06-26T11:44:09;96852.25;;;20.28;46.00
42727;BME280;28372;56.832;60.658;2023-06-26T11:46:38;96847.69;;;20.34;45.32
42727;BME280;28372;56.832;60.658;2023-06-26T11:49:06;96850.84;;;20.42;44.73
42727;BME280;28372;56.832;60.658;2023-06-26T11:51:35;96858.19;;;20.45;44.35
42727;BME280;28372;56.832;60.658;2023-06-26T11:54:05;96845.06;;;20.49;44.55
42727;BME280;28372;56.832;60.658;2023-06-26T11:56:33;96853.13;;;20.53;44.55
42727;BME280;28372;56.832;60.658;2023-06-26T12:01:38;96841.19;;;20.65;43.01
42727;BME280;28372;56.832;60.658;2023-06-26T12:04:08;96840.47;;;20.56;43.12
42727;BME280;28372;56.832;60.658;2023-06-26T12:06:48;96840.88;;;20.63;42.64
42727;BME280;28372;56.832;60.658;2023-06-26T12:09:18;96843.06;;;20.59;43.02
42727;BME280;28372;56.832;60.658;2023-06-26T12:11:49;96847.44;;;20.66;43.20
42727;BME280;28372;56.832;60.658;2023-06-26T12:14:20;96844.56;;;20.69;42.49
42727;BME280;28372;56.832;60.658;2023-06-26T12:16:48;96838.44;;;20.65;42.41
42727;BME280;28372;56.832;60.658;2023-06-26T12:19:17;96843.78;;;20.69;41.85
42727;BME280;28372;56.832;60.658;2023-06-26T12:21:46;96846.38;;;20.63;42.26
42727;BME280;28372;56.832;60.658;2023-06-26T12:24:19;96849.88;;;20.73;42.46
42727;BME280;28372;56.832;60.658;2023-06-26T12:26:54;96843.19;;;20.74;42.70
42727;BME280;28372;56.832;60.658;2023-06-26T12:29:33;96849.00;;;20.76;42.38
42727;BME280;28372;56.832;60.658;2023-06-26T12:32:02;96840.13;;;20.63;42.45
42727;BME280;28372;56.832;60.658;2023-06-26T12:34:34;96842.88;;;20.72;42.87
42727;BME280;28372;56.832;60.658;2023-06-26T12:37:04;96839.97;;;20.76;42.90
42727;BME280;28372;56.832;60.658;2023-06-26T12:39:48;96841.88;;;20.94;42.44
42727;BME280;28372;56.832;60.658;2023-06-26T12:42:23;96837.94;;;20.85;42.96
42727;BME280;28372;56.832;60.658;2023-06-26T12:44:52;96841.63;;;20.82;42.39
42727;BME280;28372;56.832;60.658;2023-06-26T12:47:25;96838.84;;;20.92;42.97
42727;BME280;28372;56.832;60.658;2023-06-26T12:49:55;96840.69;;;20.85;41.95
42727;BME280;28372;56.832;60.658;2023-06-26T12:52:22;96844.22;;;20.86;40.60
42727;BME280;28372;56.832;60.658;2023-06-26T12:54:54;96838.03;;;21.00;40.46
42727;BME280;28372;56.832;60.658;2023-06-26T12:57:24;96828.44;;;20.96;39.60
42727;BME280;28372;56.832;60.658;2023-06-26T12:59:51;96832.56;;;20.91;39.47
42727;BME280;28372;56.832;60.658;2023-06-26T13:02:19;96836.56;;;20.90;38.32
42727;BME280;28372;56.832;60.658;2023-06-26T13:04:47;96827.41;;;20.84;38.83
42727;BME280;28372;56.832;60.658;2023-06-26T13:07:15;96838.88;;;20.82;38.69
42727;BME280;28372;56.832;60.658;2023-06-26T13:09:43;96835.25;;;20.76;37.98
42727;BME280;28372;56.832;60.658;2023-06-26T13:12:14;96831.91;;;20.72;38.51
42727;BME280;28372;56.832;60.658;2023-06-26T13:14:42;96833.13;;;20.71;37.70
42727;BME280;28372;56.832;60.658;2023-06-26T13:17:11;96825.47;;;20.66;38.07
42727;BME280;28372;56.832;60.658;2023-06-26T13:19:39;96836.31;;;20.60;37.73
42727;BME280;28372;56.832;60.658;2023-06-26T13:22:06;96834.34;;;20.61;37.71